Time;durP1;ratioP1;P1;durP2;ratioP2;P2;SDS_P1;SDS_P2;PMS_P1;PMS_P2;Temp;Humidity;BMP_temperature;BMP_pressure;BME280_temperature;BME280_humidity;BME280_pressure;Samples;Min_cycle;Max_cycle;Signal;HPM_P1;HPM_P2
2022/03/23 00:00:26;;;;;;;13.50;3.95;;;;;;;5.17;38.44;100686.84;4914977;29;20135;-63
2022/03/23 00:02:53;;;;;;;23.25;4.88;;;;;;;5.09;37.58;100681.81;4915457;29;20052;-63
2022/03/23 00:05:20;;;;;;;36.97;5.15;;;;;;;5.13;37.83;100685.72;4914994;29;20052;-63
2022/03/23 00:07:49;;;;;;;21.23;4.50;;;;;;;5.04;38.04;100676.28;4915491;29;20064;-63
2022/03/23 00:10:16;;;;;;;28.13;4.25;;;;;;;5.08;38.17;100677.41;4915908;29;20056;-63
2022/03/23 00:12:44;;;;;;;26.50;4.40;;;;;;;5.06;38.07;100678.78;4918649;29;20092;-63
2022/03/23 00:15:12;;;;;;;18.52;4.13;;;;;;;5.01;38.28;100670.50;4919151;29;20108;-64
2022/03/23 00:17:42;;;;;;;35.05;4.57;;;;;;;4.96;38.23;100674.06;4918510;29;20080;-62
2022/03/23 00:20:10;;;;;;;17.35;3.78;;;;;;;4.88;38.63;100680.06;4919024;29;20486;-63
2022/03/23 00:22:37;;;;;;;12.73;3.60;;;;;;;4.89;38.49;100678.97;4917947;29;20115;-63
2022/03/23 00:25:04;;;;;;;10.00;3.63;;;;;;;4.85;38.78;100672.34;4918683;29;20048;-62
2022/03/23 00:27:31;;;;;;;14.55;3.20;;;;;;;4.84;38.90;100673.44;4918184;29;20456;-63
2022/03/23 00:29:58;;;;;;;7.45;2.97;;;;;;;4.84;38.86;100670.69;4918594;29;20587;-63
2022/03/23 00:32:25;;;;;;;16.30;4.28;;;;;;;4.83;39.20;100666.25;4917957;29;20063;-63
2022/03/23 00:34:52;;;;;;;14.68;3.63;;;;;;;4.82;39.43;100666.53;4902607;29;20055;-64
2022/03/23 00:37:20;;;;;;;11.63;3.30;;;;;;;4.78;39.65;100660.75;4917816;29;20204;-63
2022/03/23 00:39:47;;;;;;;16.33;3.58;;;;;;;4.78;39.01;100666.25;4918390;29;20047;-63
2022/03/23 00:42:14;;;;;;;13.65;4.00;;;;;;;4.78;39.41;100657.97;4917864;29;20163;-63
2022/03/23 00:44:41;;;;;;;9.27;3.20;;;;;;;4.80;39.36;100658.53;4918306;29;20096;-63
2022/03/23 00:47:09;;;;;;;10.57;3.63;;;;;;;4.70;39.29;100658.47;4918105;29;20095;-64
2022/03/23 00:49:37;;;;;;;8.38;3.20;;;;;;;4.63;39.23;100649.63;4917953;29;20134;-63
2022/03/23 00:52:06;;;;;;;13.77;3.45;;;;;;;4.64;39.39;100658.72;4917908;29;20056;-62
2022/03/23 00:54:34;;;;;;;7.30;3.45;;;;;;;4.60;39.52;100654.84;4918524;29;20455;-62
2022/03/23 00:57:06;;;;;;;12.07;3.30;;;;;;;4.57;39.77;100650.69;4918346;29;20580;-62
2022/03/23 00:59:33;;;;;;;12.70;3.22;;;;;;;4.52;40.08;100655.31;4917744;29;20416;-62
2022/03/23 01:02:02;;;;;;;7.50;3.17;;;;;;;4.43;39.98;100646.75;4918144;29;20558;-62
2022/03/23 01:04:30;;;;;;;12.40;3.33;;;;;;;4.42;40.23;100644.25;4901998;29;20044;-68
2022/03/23 01:06:57;;;;;;;8.77;3.55;;;;;;;4.39;40.01;100653.88;4917962;29;20490;-68
2022/03/23 01:09:25;;;;;;;9.82;3.72;;;;;;;4.41;40.18;100653.63;4917553;29;20413;-67
2022/03/23 01:11:54;;;;;;;7.80;3.40;;;;;;;4.41;40.41;100654.44;4917689;29;20500;-68
2022/03/23 01:14:23;;;;;;;14.00;3.80;;;;;;;4.41;40.30;100654.44;4917441;29;20567;-68
2022/03/23 01:16:51;;;;;;;8.40;3.60;;;;;;;4.41;40.31;100653.63;4917426;29;20086;-69
2022/03/23 01:19:25;;;;;;;7.63;4.18;;;;;;;4.43;40.48;100654.16;4917396;29;20534;-68
2022/03/23 01:21:52;;;;;;;8.18;3.78;;;;;;;4.44;40.02;100653.09;4917122;29;20111;-67
2022/03/23 01:24:19;;;;;;;9.60;3.70;;;;;;;4.38;40.12;100643.94;4917156;29;20101;-68
2022/03/23 01:26:46;;;;;;;5.95;3.58;;;;;;;4.39;40.27;100645.63;4901546;29;20078;-67
2022/03/23 01:29:13;;;;;;;13.60;3.78;;;;;;;4.38;40.19;100648.66;4917404;29;20143;-69
2022/03/23 01:31:40;;;;;;;8.02;3.03;;;;;;;4.37;40.40;100645.06;4917469;29;20116;-68
2022/03/23 01:34:07;;;;;;;6.63;3.50;;;;;;;4.36;40.54;100640.66;4916798;29;20139;-68
2022/03/23 01:36:34;;;;;;;13.20;4.18;;;;;;;4.34;40.52;100642.81;4917373;29;20127;-68
2022/03/23 01:39:02;;;;;;;9.70;3.70;;;;;;;4.30;40.48;100636.19;4917828;29;20481;-68
2022/03/23 01:41:30;;;;;;;11.90;3.92;;;;;;;4.26;40.72;100629.53;4917456;29;20616;-68
2022/03/23 01:43:57;;;;;;;11.32;3.60;;;;;;;4.26;40.49;100637.81;4916598;29;20067;-68
2022/03/23 01:46:26;;;;;;;14.65;3.88;;;;;;;4.23;40.59;100624.56;4917290;29;20051;-68
2022/03/23 01:48:53;;;;;;;9.10;3.72;;;;;;;4.21;40.80;100632.28;4917113;29;20432;-62
2022/03/23 01:51:20;;;;;;;10.10;3.70;;;;;;;4.19;40.95;100623.44;4916856;29;20147;-63
2022/03/23 01:53:47;;;;;;;8.68;4.15;;;;;;;4.20;40.87;100629.78;4917239;29;20084;-63
2022/03/23 01:56:14;;;;;;;8.98;3.35;;;;;;;4.18;41.12;100630.06;4916570;29;20051;-62
2022/03/23 01:58:42;;;;;;;7.50;3.65;;;;;;;4.20;40.84;100630.59;4916944;29;20060;-63
2022/03/23 02:01:09;;;;;;;7.43;3.58;;;;;;;4.16;40.59;100623.97;4916601;29;20079;-63
2022/03/23 02:03:40;;;;;;;6.80;2.95;;;;;;;4.17;41.19;100625.63;4916661;29;20126;-68
2022/03/23 02:06:07;;;;;;;11.80;3.67;;;;;;;4.14;40.78;100620.66;4916712;29;20052;-68
2022/03/23 02:08:34;;;;;;;10.38;4.05;;;;;;;4.15;40.38;100618.72;4916756;29;20055;-69
2022/03/23 02:11:01;;;;;;;5.35;3.33;;;;;;;4.08;41.11;100616.19;4916746;29;20575;-68
2022/03/23 02:13:28;;;;;;;7.85;3.55;;;;;;;4.05;41.19;100616.72;4916506;29;20083;-62
2022/03/23 02:15:55;;;;;;;6.78;3.38;;;;;;;4.04;41.12;100620.59;4916512;29;20143;-62
2022/03/23 02:18:22;;;;;;;8.25;3.67;;;;;;;4.01;41.33;100612.84;4900210;29;20550;-63
2022/03/23 02:20:50;;;;;;;10.98;4.18;;;;;;;3.96;41.40;100612.00;4900355;29;20056;-63
2022/03/23 02:23:17;;;;;;;9.68;3.95;;;;;;;3.93;41.52;100610.56;4916207;29;20543;-62
2022/03/23 02:25:47;;;;;;;8.48;3.55;;;;;;;3.91;41.89;100615.53;4916454;29;20048;-63
2022/03/23 02:28:15;;;;;;;7.88;3.75;;;;;;;3.86;41.74;100617.41;4912882;29;20091;-64
2022/03/23 02:30:42;;;;;;;14.98;4.15;;;;;;;3.84;41.62;100614.91;4915850;29;20452;-62
2022/03/23 02:33:09;;;;;;;11.35;4.53;;;;;;;3.82;41.91;100611.56;4899594;29;20056;-62
2022/03/23 02:35:36;;;;;;;8.38;4.28;;;;;;;3.77;41.77;100614.31;4900432;29;20504;-62
2022/03/23 02:38:03;;;;;;;14.93;3.30;;;;;;;3.75;42.17;100613.72;4915811;29;20098;-62
2022/03/23 02:40:30;;;;;;;15.70;3.75;;;;;;;3.75;41.89;100617.31;4916434;29;20078;-63
2022/03/23 02:42:57;;;;;;;8.63;3.85;;;;;;;3.80;42.22;100608.28;4915651;29;20048;-63
2022/03/23 02:45:24;;;;;;;10.57;3.53;;;;;;;3.80;41.99;100616.53;4916080;29;20094;-63
2022/03/23 02:47:51;;;;;;;7.20;3.60;;;;;;;3.78;42.07;100611.28;4899655;29;20059;-62
2022/03/23 02:50:18;;;;;;;13.15;4.03;;;;;;;3.75;41.89;100605.47;4916446;29;20136;-63
2022/03/23 03:04:07;;;;;;;12.20;3.75;;;;;;;3.65;41.78;100603.44;4915737;29;20064;-63
2022/03/23 03:06:34;;;;;;;10.93;3.88;;;;;;;3.64;41.27;100603.72;4915672;29;20056;-62
2022/03/23 03:09:01;;;;;;;10.93;3.75;;;;;;;3.58;41.92;100591.00;4915931;29;20152;-63
2022/03/23 03:11:28;;;;;;;15.43;4.47;;;;;;;3.53;41.76;100591.78;4915335;29;20393;-63
2022/03/23 03:13:55;;;;;;;8.77;3.45;;;;;;;3.55;42.06;100597.03;4915767;29;20062;-63
2022/03/23 03:16:22;;;;;;;10.65;4.20;;;;;;;3.53;42.04;100597.28;4915449;29;20135;-63
2022/03/23 03:18:49;;;;;;;10.93;3.90;;;;;;;3.54;42.21;100595.38;4915966;29;20083;-63
2022/03/23 03:21:17;;;;;;;9.68;3.75;;;;;;;3.50;42.23;100588.75;4915235;29;20079;-63
2022/03/23 03:23:46;;;;;;;20.13;4.15;;;;;;;3.49;42.08;100587.06;4915430;29;20098;-63
2022/03/23 03:26:14;;;;;;;7.45;3.53;;;;;;;3.44;42.45;100581.56;4915178;29;20044;-62
2022/03/23 03:28:42;;;;;;;13.38;3.95;;;;;;;3.44;42.31;100593.34;4915404;29;20139;-62
2022/03/23 03:31:12;;;;;;;8.50;4.20;;;;;;;3.45;43.05;100588.69;4914974;29;20138;-62
2022/03/23 03:33:39;;;;;;;12.98;3.97;;;;;;;3.42;42.70;100586.47;4915698;29;20103;-63
2022/03/23 03:36:06;;;;;;;9.90;4.07;;;;;;;3.39;42.74;100584.25;4899368;29;20116;-62
2022/03/23 03:38:35;;;;;;;12.13;4.80;;;;;;;3.33;43.14;100586.13;4915648;29;20087;-69
2022/03/23 03:41:04;;;;;;;18.20;5.10;;;;;;;3.32;43.13;100580.88;4915264;29;20151;-68
2022/03/23 03:43:31;;;;;;;13.80;4.30;;;;;;;3.30;43.39;100583.06;4915513;29;20070;-68
2022/03/23 03:45:59;;;;;;;17.33;4.32;;;;;;;3.36;43.31;100585.59;4918641;29;20139;-70
2022/03/23 03:48:27;;;;;;;13.00;4.47;;;;;;;3.37;43.11;100584.50;4919031;29;20472;-68
2022/03/23 03:50:55;;;;;;;16.08;4.93;;;;;;;3.37;43.19;100589.16;4919478;29;20048;-68
2022/03/23 03:53:22;;;;;;;15.70;4.65;;;;;;;3.36;43.45;100587.50;4903702;29;20127;-68
2022/03/23 03:55:57;;;;;;;10.93;4.72;;;;;;;3.38;43.37;100586.16;4919536;29;20052;-68
2022/03/23 03:58:24;;;;;;;11.25;4.30;;;;;;;3.45;43.45;100588.69;4918605;29;20146;-68
2022/03/23 04:00:52;;;;;;;14.35;4.07;;;;;;;3.49;43.44;100587.06;4920135;29;20056;-63
2022/03/23 04:03:20;;;;;;;11.48;4.57;;;;;;;3.52;43.09;100589.31;4918580;29;20052;-62
2022/03/23 04:05:47;;;;;;;12.75;3.90;;;;;;;3.54;42.81;100584.38;4903406;29;20147;-63
2022/03/23 04:08:14;;;;;;;10.52;4.50;;;;;;;3.57;43.09;100581.09;4918306;29;20415;-62
2022/03/23 04:10:41;;;;;;;12.40;4.40;;;;;;;3.58;42.61;100586.34;4919242;29;20083;-63
2022/03/23 04:13:08;;;;;;;9.82;4.15;;;;;;;3.60;42.74;100575.91;4894111;29;20516;-65
2022/03/23 04:15:36;;;;;;;10.68;4.50;;;;;;;3.64;42.60;100581.72;4919018;29;20058;-63
2022/03/23 04:18:03;;;;;;;9.27;4.13;;;;;;;3.66;42.63;100579.53;4918094;29;20055;-64
2022/03/23 04:20:31;;;;;;;7.85;3.85;;;;;;;3.70;42.58;100569.66;4919124;29;20103;-62
2022/03/23 04:22:58;;;;;;;28.73;4.55;;;;;;;3.69;42.78;100576.25;4917979;29;20127;-62
2022/03/23 04:25:26;;;;;;;10.18;3.90;;;;;;;3.76;42.75;100569.44;4918675;29;20047;-63
2022/03/23 04:27:57;;;;;;;12.38;4.40;;;;;;;3.81;42.61;100571.41;4918046;29;20144;-63
2022/03/23 04:30:30;;;;;;;9.27;4.13;;;;;;;3.86;42.87;100571.44;4915481;29;20055;-63
2022/03/23 04:32:58;;;;;;;10.75;4.22;;;;;;;3.93;42.71;100563.78;4918148;29;20055;-64
2022/03/23 04:35:26;;;;;;;8.57;4.53;;;;;;;4.05;42.15;100572.69;4918527;29;20052;-64
2022/03/23 04:37:53;;;;;;;14.50;5.10;;;;;;;4.13;42.01;100574.09;4918121;29;20449;-63
2022/03/23 04:40:22;;;;;;;14.65;4.70;;;;;;;4.19;41.51;100568.38;4918495;29;20052;-63
2022/03/23 04:42:49;;;;;;;14.50;4.68;;;;;;;4.29;41.62;100565.66;4918108;29;20056;-63
2022/03/23 04:45:17;;;;;;;8.20;4.05;;;;;;;4.41;41.40;100560.78;4917409;29;20083;-65
2022/03/23 04:47:45;;;;;;;17.95;4.80;;;;;;;4.50;41.33;100564.66;4918194;29;20051;-62
2022/03/23 04:50:14;;;;;;;19.08;5.05;;;;;;;4.56;40.83;100563.59;4918204;29;20048;-63
2022/03/23 04:52:43;;;;;;;18.15;4.68;;;;;;;4.65;40.79;100559.22;4917990;29;20151;-64
2022/03/23 04:55:12;;;;;;;15.35;4.35;;;;;;;4.75;40.66;100562.06;4917516;29;20043;-63
2022/03/23 04:57:40;;;;;;;13.75;5.07;;;;;;;4.84;40.53;100559.59;4917242;29;20059;-64
2022/03/23 05:00:13;;;;;;;36.13;6.07;;;;;;;4.96;40.43;100563.78;4917449;29;20139;-64
2022/03/23 05:02:44;;;;;;;15.35;4.80;;;;;;;5.04;40.34;100549.44;4917696;29;20056;-63
2022/03/23 05:05:13;;;;;;;8.35;4.05;;;;;;;5.14;40.24;100549.47;4917463;29;20412;-64
2022/03/23 05:07:41;;;;;;;21.35;3.95;;;;;;;5.24;39.77;100551.44;4918006;29;20416;-63
2022/03/23 05:10:10;;;;;;;12.15;4.75;;;;;;;5.39;39.47;100555.03;4917991;29;20527;-63
2022/03/23 05:12:38;;;;;;;24.80;4.43;;;;;;;5.60;38.92;100558.66;4910417;29;20053;-62
2022/03/23 05:15:06;;;;;;;13.50;4.93;;;;;;;5.72;39.25;100550.91;4900575;29;20074;-64
2022/03/23 05:17:33;;;;;;;14.27;4.60;;;;;;;5.90;38.81;100544.03;4917696;29;20126;-63
2022/03/23 05:20:01;;;;;;;14.30;5.05;;;;;;;6.24;37.76;100536.78;4917200;29;20131;-64
2022/03/23 05:22:29;;;;;;;13.60;4.82;;;;;;;6.52;37.39;100538.91;4905702;29;20435;-63
2022/03/23 05:24:56;;;;;;;16.92;4.22;;;;;;;7.24;36.59;100541.88;4917699;29;21213;-62
2022/03/23 05:27:23;;;;;;;12.68;4.30;;;;;;;8.50;33.89;100533.28;4917617;29;20135;-63
2022/03/23 05:29:50;;;;;;;10.93;3.78;;;;;;;9.62;32.61;100548.13;4917119;29;20158;-62
2022/03/23 05:32:18;;;;;;;19.00;4.68;;;;;;;10.55;30.98;100538.41;4917362;29;20103;-63
2022/03/23 05:34:46;;;;;;;9.68;4.40;;;;;;;10.81;30.96;100535.91;4915642;29;20055;-62
2022/03/23 05:37:13;;;;;;;12.50;5.22;;;;;;;10.92;30.88;100538.16;4913795;29;20102;-63
2022/03/23 05:39:40;;;;;;;12.35;5.03;;;;;;;11.44;29.50;100539.50;4916871;29;20135;-63
2022/03/23 05:42:07;;;;;;;10.68;4.78;;;;;;;12.30;28.98;100536.25;4917160;29;20134;-63
2022/03/23 05:44:34;;;;;;;14.05;5.05;;;;;;;11.89;29.23;100532.03;4917408;29;20520;-67
2022/03/23 05:47:02;;;;;;;15.85;4.85;;;;;;;12.90;28.00;100528.94;4916811;29;20137;-63
2022/03/23 05:49:30;;;;;;;12.35;4.35;;;;;;;11.74;29.59;100533.25;4916953;29;20140;-63
2022/03/23 05:51:57;;;;;;;8.38;4.03;;;;;;;10.90;29.91;100525.72;4916737;29;20067;-62
2022/03/23 05:54:25;;;;;;;17.00;4.63;;;;;;;11.36;29.88;100536.63;4916890;29;20411;-64
2022/03/23 05:56:52;;;;;;;46.03;5.97;;;;;;;13.46;27.12;100524.47;4915057;29;20048;-63
2022/03/23 05:59:20;;;;;;;12.70;4.90;;;;;;;14.41;25.67;100524.03;4917328;29;20414;-63
2022/03/23 06:01:47;;;;;;;13.50;5.32;;;;;;;13.69;26.43;100528.75;4914909;29;20524;-63
2022/03/23 06:04:14;;;;;;;8.13;4.88;;;;;;;12.38;28.68;100521.50;4917092;29;20142;-63
2022/03/23 06:06:41;;;;;;;16.05;4.93;;;;;;;13.08;27.77;100527.03;4916066;29;20094;-63
2022/03/23 06:09:08;;;;;;;19.23;5.65;;;;;;;14.74;25.53;100527.88;4915966;29;20055;-63
2022/03/23 06:11:35;;;;;;;14.57;4.90;;;;;;;16.27;23.46;100521.13;4917044;29;20054;-69
2022/03/23 06:14:02;;;;;;;18.48;6.68;;;;;;;17.04;22.79;100510.94;4916530;29;20658;-69
2022/03/23 06:16:29;;;;;;;13.85;5.07;;;;;;;15.54;24.43;100513.56;4915241;29;20453;-68
2022/03/23 06:18:56;;;;;;;17.70;5.38;;;;;;;14.82;25.19;100513.00;4916699;29;20185;-69
2022/03/23 06:21:23;;;;;;;25.83;5.80;;;;;;;17.54;22.50;100520.63;4915813;29;20079;-68
2022/03/23 06:23:50;;;;;;;8.90;5.38;;;;;;;19.74;20.06;100507.97;4917533;29;20072;-69
2022/03/23 06:26:22;;;;;;;13.52;4.88;;;;;;;21.23;18.65;100507.59;4916555;29;20055;-68
2022/03/23 06:28:50;;;;;;;10.68;5.72;;;;;;;22.55;17.38;100512.66;4917901;29;20519;-69
2022/03/23 06:31:17;;;;;;;18.55;5.25;;;;;;;22.30;17.56;100510.72;4916825;29;20056;-69
2022/03/23 06:33:44;;;;;;;22.80;5.47;;;;;;;22.57;17.26;100513.09;4916679;29;20052;-67
2022/03/23 06:36:11;;;;;;;19.63;6.78;;;;;;;22.26;17.45;100513.50;4909211;29;20055;-69
2022/03/23 06:38:38;;;;;;;14.40;5.72;;;;;;;22.27;17.39;100500.97;4916956;29;20051;-68
2022/03/23 06:41:07;;;;;;;15.55;5.32;;;;;;;23.14;16.15;100506.72;4916392;29;20059;-68
2022/03/23 06:43:34;;;;;;;26.30;7.13;;;;;;;22.79;16.61;100506.41;4916718;29;20084;-71
2022/03/23 06:46:03;;;;;;;13.60;5.25;;;;;;;22.75;16.55;100504.75;4916505;29;20099;-70
2022/03/23 06:48:30;;;;;;;25.73;5.20;;;;;;;22.58;16.62;100500.53;4916565;29;20060;-70
2022/03/23 06:50:58;;;;;;;15.35;4.78;;;;;;;22.55;16.39;100494.81;4916372;29;20423;-70
2022/03/23 06:53:25;;;;;;;20.92;5.30;;;;;;;19.99;18.25;100495.19;4916581;29;20540;-69
2022/03/23 06:55:52;;;;;;;12.00;5.57;;;;;;;18.28;19.76;100500.25;4916079;29;20295;-69
2022/03/23 06:58:19;;;;;;;28.42;5.80;;;;;;;18.53;19.80;100501.78;4915770;29;20103;-69
2022/03/23 07:00:46;;;;;;;22.00;6.20;;;;;;;18.90;19.15;100493.88;4917103;29;20048;-68
2022/03/23 07:03:13;;;;;;;14.85;5.82;;;;;;;20.11;18.36;100487.75;4916866;29;20456;-68
2022/03/23 07:05:40;;;;;;;20.67;6.20;;;;;;;20.08;18.17;100483.69;4916491;29;20530;-69
2022/03/23 07:10:54;;;;;;;31.77;6.00;;;;;;;19.23;19.08;100477.34;4912939;29;20146;-69
2022/03/23 07:13:21;;;;;;;27.88;6.35;;;;;;;19.10;19.09;100476.63;4915614;29;20079;-68
2022/03/23 07:15:48;;;;;;;20.77;6.88;;;;;;;19.91;18.47;100479.31;4915725;29;20123;-69
2022/03/23 07:18:15;;;;;;;21.83;5.78;;;;;;;21.31;17.48;100471.72;4916159;29;20048;-68
2022/03/23 07:20:42;;;;;;;21.38;5.13;;;;;;;22.95;16.03;100470.03;4915777;29;20056;-68
2022/03/23 07:23:09;;;;;;;17.83;5.20;;;;;;;24.14;15.35;100470.00;4915150;29;20131;-68
2022/03/23 07:25:36;;;;;;;12.90;5.18;;;;;;;22.41;16.30;100478.44;4915107;29;20477;-69
2022/03/23 07:28:04;;;;;;;15.25;5.05;;;;;;;22.17;16.68;100478.97;4915736;29;20103;-68
2022/03/23 07:30:35;;;;;;;11.75;5.25;;;;;;;21.96;16.68;100469.44;4915670;29;20519;-68
2022/03/23 07:33:02;;;;;;;13.95;5.40;;;;;;;22.48;16.37;100477.69;4915616;29;20073;-67
2022/03/23 07:35:30;;;;;;;17.00;4.90;;;;;;;25.17;14.63;100465.25;4915229;29;20412;-68
2022/03/23 07:37:57;;;;;;;10.82;4.68;;;;;;;27.73;12.27;100469.44;4915409;29;20150;-68
2022/03/23 07:40:24;;;;;;;17.10;4.18;;;;;;;27.37;12.24;100463.28;4915140;29;20534;-68
2022/03/23 07:42:51;;;;;;;18.95;4.78;;;;;;;24.99;13.83;100462.41;4915266;29;20052;-69
2022/03/23 07:45:18;;;;;;;12.57;4.40;;;;;;;24.09;14.52;100469.53;4914714;29;20071;-68
2022/03/23 07:47:45;;;;;;;11.07;3.80;;;;;;;24.61;13.93;100457.50;4915127;29;20071;-63
2022/03/23 07:50:12;;;;;;;11.18;4.05;;;;;;;25.28;13.81;100458.28;4914843;29;20111;-62
2022/03/23 07:52:40;;;;;;;14.80;4.50;;;;;;;24.54;14.04;100449.75;4911895;29;20078;-63
2022/03/23 07:55:07;;;;;;;10.50;4.03;;;;;;;22.96;15.19;100459.53;4914842;29;20139;-61
2022/03/23 07:57:34;;;;;;;8.07;3.67;;;;;;;21.49;16.14;100453.81;4915080;29;20044;-63
2022/03/23 08:00:01;;;;;;;12.50;3.13;;;;;;;21.63;16.11;100456.03;4914946;29;20147;-62
2022/03/23 08:02:29;;;;;;;13.73;4.15;;;;;;;21.73;15.99;100450.50;4914864;29;20052;-62
2022/03/23 08:04:56;;;;;;;6.78;4.10;;;;;;;22.27;15.47;100444.28;4915229;29;20055;-62
2022/03/23 08:07:23;;;;;;;17.17;3.83;;;;;;;23.06;14.90;100444.59;4914574;29;20135;-64
2022/03/23 08:09:50;;;;;;;6.72;3.28;;;;;;;23.44;14.71;100440.41;4914928;29;20075;-63
2022/03/23 08:12:17;;;;;;;7.63;2.97;;;;;;;24.09;14.35;100432.59;4914429;29;20522;-64
2022/03/23 08:14:46;;;;;;;9.48;3.05;;;;;;;24.67;13.96;100425.41;4915084;29;20603;-62
2022/03/23 08:17:18;;;;;;;5.85;2.80;;;;;;;25.32;13.42;100430.66;4914479;29;20135;-63
2022/03/23 08:20:32;;;;;;;13.77;3.42;;;;;;;25.11;13.84;100427.84;4898971;29;20139;-63
2022/03/23 08:22:32;;;;;;;15.27;3.42;;;;;;;24.47;14.26;100426.16;4914329;29;20074;-61
2022/03/23 08:24:59;;;;;;;8.48;3.00;;;;;;;25.26;13.98;100426.59;4915307;29;20050;-62
2022/03/23 08:27:26;;;;;;;10.43;3.40;;;;;;;26.85;12.90;100424.56;4914051;29;20472;-61
2022/03/23 08:29:53;;;;;;;9.50;3.72;;;;;;;28.15;11.81;100412.50;4915041;29;20062;-62
2022/03/23 08:32:23;;;;;;;5.85;2.92;;;;;;;29.87;10.27;100415.25;4916703;29;20060;-63
2022/03/23 08:34:50;;;;;;;11.38;2.75;;;;;;;30.14;10.04;100407.25;4918246;29;20052;-62
2022/03/23 08:37:18;;;;;;;11.68;2.90;;;;;;;31.48;9.23;100409.69;4917721;29;20143;-67
2022/03/23 08:39:45;;;;;;;7.90;2.97;;;;;;;32.70;8.33;100404.31;4918231;29;20052;-67
2022/03/23 08:42:12;;;;;;;9.82;3.17;;;;;;;33.87;7.80;100401.81;4917522;29;20520;-68
2022/03/23 08:44:41;;;;;;;11.68;5.30;;;;;;;34.62;7.11;100402.13;4918035;29;20060;-67
2022/03/23 08:47:09;;;;;;;5.97;3.40;;;;;;;35.78;6.79;100408.63;4917353;29;20062;-68
2022/03/23 08:49:35;;;;;;;6.97;2.90;;;;;;;36.30;6.68;100399.56;4917699;29;20056;-68
2022/03/23 08:52:03;;;;;;;8.05;3.45;;;;;;;37.00;6.32;100394.44;4917673;29;20074;-68
2022/03/23 08:54:31;;;;;;;9.45;3.00;;;;;;;37.09;5.94;100376.97;4914242;29;20423;-67
2022/03/23 08:56:58;;;;;;;5.43;2.90;;;;;;;37.40;6.01;100389.00;4917347;29;20063;-69
2022/03/23 08:59:25;;;;;;;4.97;2.85;;;;;;;37.45;5.75;100385.44;4918070;29;20087;-68
2022/03/23 09:01:52;;;;;;;12.52;3.60;;;;;;;37.92;5.49;100386.13;4917617;29;20052;-68
2022/03/23 09:04:19;;;;;;;9.95;3.42;;;;;;;38.29;5.43;100383.66;4917920;29;20055;-68
2022/03/23 09:06:47;;;;;;;10.68;3.75;;;;;;;38.46;5.04;100378.13;4917736;29;20103;-68
2022/03/23 09:09:14;;;;;;;5.72;3.83;;;;;;;38.45;5.20;100376.53;4917541;29;20131;-68
2022/03/23 09:11:43;;;;;;;8.80;3.08;;;;;;;39.20;5.33;100381.19;4917288;29;20467;-68
2022/03/23 09:14:12;;;;;;;5.85;3.03;;;;;;;38.77;5.23;100370.47;4917043;29;20469;-68
2022/03/23 09:16:40;;;;;;;6.50;3.40;;;;;;;39.24;5.20;100375.94;4917636;29;20048;-70
2022/03/23 09:19:07;;;;;;;5.90;3.10;;;;;;;39.28;5.06;100359.03;4901701;29;20500;-68
2022/03/23 09:21:38;;;;;;;8.18;3.50;;;;;;;39.60;4.96;100357.06;4917161;29;20062;-69
2022/03/23 09:24:06;;;;;;;10.43;3.63;;;;;;;39.75;4.35;100367.31;4917220;29;20079;-68
2022/03/23 09:26:33;;;;;;;7.00;3.78;;;;;;;39.29;4.61;100351.91;4917234;29;20056;-68
2022/03/23 09:29:00;;;;;;;7.93;3.33;;;;;;;38.97;4.89;100355.13;4917378;29;20055;-68
2022/03/23 09:31:27;;;;;;;6.63;4.20;;;;;;;38.47;5.30;100354.34;4917510;29;20090;-68
2022/03/23 09:33:54;;;;;;;7.75;3.58;;;;;;;39.03;4.83;100344.41;4916620;29;20074;-68
2022/03/23 09:39:07;;;;;;;8.40;4.32;;;;;;;39.69;5.08;100343.13;4916865;29;20087;-69
2022/03/23 09:41:34;;;;;;;5.97;3.47;;;;;;;39.30;4.60;100338.94;4917053;29;20143;-69
2022/03/23 09:44:02;;;;;;;9.10;4.13;;;;;;;38.88;4.88;100338.63;4916744;29;20519;-69
2022/03/23 09:46:31;;;;;;;7.03;3.92;;;;;;;34.10;6.37;100338.59;4917700;29;20052;-70
2022/03/23 09:48:59;;;;;;;7.25;3.40;;;;;;;29.25;8.93;100332.09;4916261;29;20052;-69
2022/03/23 09:51:28;;;;;;;8.75;3.80;;;;;;;26.56;10.21;100343.25;4916551;29;20056;-69
2022/03/23 09:53:55;;;;;;;10.68;3.38;;;;;;;24.44;11.55;100336.78;4916612;29;20074;-68
2022/03/23 09:56:22;;;;;;;14.30;3.63;;;;;;;23.04;12.26;100322.94;4900762;29;20052;-70
2022/03/23 09:58:49;;;;;;;15.23;4.13;;;;;;;21.73;13.09;100330.69;4916838;29;20096;-68
2022/03/23 10:01:29;;;;;;;8.25;3.60;;;;;;;20.40;14.54;100323.22;4901280;29;20047;-69
2022/03/23 10:04:13;;;;;;;12.18;3.70;;;;;;;19.02;15.46;100325.38;4916406;29;20083;-69
2022/03/23 10:06:49;;;;;;;9.57;4.22;;;;;;;17.66;16.83;100320.78;4914730;29;20048;-70
2022/03/23 10:10:07;;;;;;;9.52;3.60;;;;;;;16.89;17.17;100312.09;4915901;29;20044;-69
2022/03/23 10:12:52;;;;;;;14.07;3.20;;;;;;;16.32;17.54;100301.84;4857439;29;20057;-69
2022/03/23 10:16:03;;;;;;;7.47;3.25;;;;;;;15.78;18.13;100297.63;4858176;29;20053;-69
2022/03/23 10:18:53;;;;;;;9.32;3.05;;;;;;;15.38;18.69;100305.06;4914875;29;20423;-69
2022/03/23 10:21:25;;;;;;;16.75;3.58;;;;;;;15.35;18.52;100288.06;4916098;29;20145;-71
2022/03/23 10:24:02;;;;;;;10.32;3.38;;;;;;;15.21;18.91;100285.56;4915911;29;20064;-69
2022/03/23 10:26:31;;;;;;;9.30;4.38;;;;;;;15.12;19.17;100293.25;4916461;29;20559;-69
2022/03/23 10:29:00;;;;;;;11.90;5.00;;;;;;;14.77;19.91;100283.50;4916021;29;20043;-69
2022/03/23 10:31:27;;;;;;;10.07;3.47;;;;;;;14.44;20.25;100279.81;4915946;29;20080;-69
2022/03/23 10:34:10;;;;;;;17.60;4.47;;;;;;;14.29;20.73;100280.41;4916232;29;20518;-69
2022/03/23 10:36:40;;;;;;;12.52;3.50;;;;;;;14.33;20.62;100276.59;4912580;29;20143;-69
2022/03/23 10:39:10;;;;;;;;;;;;;;;14.37;20.39;100276.75;4916194;29;20094;-68
2022/03/23 10:41:37;;;;;;;7.70;3.85;;;;;;;14.38;20.58;100268.00;4912509;29;19987;-70
2022/03/23 10:44:17;;;;;;;10.02;4.85;;;;;;;14.27;20.57;100261.16;4915684;29;20143;-69
2022/03/23 10:46:46;;;;;;;7.07;2.95;;;;;;;14.12;21.25;100258.13;4913222;29;20122;-70
2022/03/23 10:49:16;;;;;;;7.70;3.10;;;;;;;14.13;21.07;100242.97;4915553;29;20048;-70
2022/03/23 10:51:43;;;;;;;5.65;2.88;;;;;;;14.01;21.18;100240.09;4915736;29;20076;-70
2022/03/23 10:54:20;;;;;;;10.27;3.30;;;;;;;13.96;21.30;100245.88;4915092;29;20135;-72
2022/03/23 10:56:48;;;;;;;5.80;3.20;;;;;;;13.89;21.52;100234.41;4913268;29;20048;-71
2022/03/23 10:59:26;;;;;;;11.02;3.42;;;;;;;13.85;21.32;100231.44;4915107;29;20520;-71
2022/03/23 11:02:01;;;;;;;7.25;3.67;;;;;;;13.73;21.75;100227.72;4915825;29;20441;-70
2022/03/23 11:04:31;;;;;;;8.40;3.58;;;;;;;13.72;21.58;100228.88;4915274;29;20056;-71
2022/03/23 11:07:01;;;;;;;6.40;3.08;;;;;;;13.78;21.71;100227.53;4915419;29;20056;-69
2022/03/23 11:18:27;;;;;;;9.00;2.35;;;;;;;13.28;21.88;100212.63;4899033;29;21641;-69
2022/03/23 11:20:56;;;;;;;5.82;3.30;;;;;;;13.29;21.61;100205.91;4903145;29;20159;-70
2022/03/23 11:23:30;;;;;;;5.93;2.77;;;;;;;13.36;21.78;100206.22;4915404;29;20060;-71
2022/03/23 11:26:00;;;;;;;4.35;2.20;;;;;;;13.39;21.55;100202.75;4915040;29;20052;-70
2022/03/23 11:28:35;;;;;;;11.73;3.33;;;;;;;13.31;21.31;100209.16;4912429;29;20076;-69
2022/03/23 11:31:07;;;;;;;8.65;3.35;;;;;;;13.22;21.63;100195.25;4915295;29;20080;-69
2022/03/23 11:33:35;;;;;;;3.97;2.35;;;;;;;13.15;21.61;100197.75;4912927;29;20052;-69
2022/03/23 11:36:09;;;;;;;6.43;2.80;;;;;;;13.20;21.60;100191.16;4915297;29;20516;-69
2022/03/23 11:38:39;;;;;;;6.47;2.97;;;;;;;13.14;21.96;100190.50;4912964;29;20079;-70
2022/03/23 11:41:08;;;;;;;7.03;2.60;;;;;;;13.05;21.56;100183.31;4914921;29;20080;-70
2022/03/23 11:43:36;;;;;;;6.25;2.38;;;;;;;13.05;21.28;100172.94;4915323;29;20083;-69
2022/03/23 11:46:24;;;;;;;7.53;2.33;;;;;;;12.96;21.36;100174.13;4901144;29;20536;-70
2022/03/23 11:49:05;;;;;;;4.95;2.17;;;;;;;12.91;21.39;100177.91;4915367;29;20079;-70
2022/03/23 11:52:00;;;;;;;7.97;2.15;;;;;;;12.95;20.84;100176.09;4899822;29;20080;-70
2022/03/23 11:55:39;;;;;;;10.32;2.17;;;;;;;13.00;21.08;100175.13;4913791;29;20063;-69
2022/03/23 11:58:16;;;;;;;8.52;2.33;;;;;;;13.00;21.45;100161.16;4914393;29;20056;-69